Time;durP1;ratioP1;P1;durP2;ratioP2;P2;SDS_P1;SDS_P2;PMS_P1;PMS_P2;Temp;Humidity;BMP_temperature;BMP_pressure;BME280_temperature;BME280_humidity;BME280_pressure;Samples;Min_cycle;Max_cycle;Signal;HPM_P1;HPM_P2
2022/06/30 00:01:24;;;;;;;2.10;2.00;;;18.20;99.90;;;;;;7370417;19;20313;-71
2022/06/30 00:03:50;;;;;;;2.40;2.20;;;18.20;99.90;;;;;;7373795;19;20344;-74
2022/06/30 00:06:15;;;;;;;2.00;1.80;;;18.20;99.90;;;;;;7374173;19;20353;-71
2022/06/30 00:08:41;;;;;;;2.00;1.90;;;18.20;99.90;;;;;;7373143;19;20436;-76
2022/06/30 00:11:06;;;;;;;2.10;1.90;;;18.20;99.90;;;;;;7365769;19;20324;-71
2022/06/30 00:13:36;;;;;;;2.13;1.95;;;18.30;99.90;;;;;;7378122;19;20417;-73
2022/06/30 00:16:02;;;;;;;2.55;2.35;;;18.30;99.90;;;;;;7377471;19;20348;-73
2022/06/30 00:18:27;;;;;;;2.22;2.13;;;18.30;99.90;;;;;;7378763;19;20339;-73
2022/06/30 00:20:53;;;;;;;3.08;2.42;;;18.20;99.90;;;;;;7370889;19;20456;-76
2022/06/30 00:23:18;;;;;;;2.10;1.90;;;18.10;99.90;;;;;;7378546;19;20471;-71
2022/06/30 00:25:44;;;;;;;2.20;2.00;;;18.20;99.90;;;;;;7378460;19;20317;-73
2022/06/30 00:28:09;;;;;;;2.15;2.03;;;18.10;99.90;;;;;;7379004;19;20731;-73
2022/06/30 00:30:35;;;;;;;2.03;1.83;;;18.20;99.90;;;;;;7368786;19;20328;-74
2022/06/30 00:33:01;;;;;;;2.30;2.10;;;18.20;99.90;;;;;;7374372;19;20421;-73
2022/06/30 00:35:26;;;;;;;2.10;1.90;;;18.30;99.90;;;;;;7375485;19;20350;-73
2022/06/30 00:37:52;;;;;;;2.10;2.00;;;18.30;99.90;;;;;;7379443;19;20344;-72
2022/06/30 00:40:17;;;;;;;1.97;1.80;;;18.30;99.90;;;;;;7374924;19;20392;-73
2022/06/30 00:42:43;;;;;;;2.10;1.90;;;18.40;99.90;;;;;;7371956;19;20423;-75
2022/06/30 00:45:09;;;;;;;2.25;1.90;;;18.40;99.90;;;;;;7377615;19;20316;-73
2022/06/30 00:47:34;;;;;;;2.00;1.85;;;18.50;99.90;;;;;;7378834;19;20353;-71
2022/06/30 00:50:00;;;;;;;2.37;2.17;;;18.50;99.90;;;;;;7377764;19;20320;-71
2022/06/30 00:52:26;;;;;;;2.35;2.00;;;18.60;99.90;;;;;;7373437;19;20340;-72
2022/06/30 00:54:52;;;;;;;2.10;2.00;;;18.60;99.90;;;;;;7376690;19;20348;-74
2022/06/30 00:57:18;;;;;;;2.28;2.05;;;18.60;99.90;;;;;;7376012;19;20439;-72
2022/06/30 00:59:45;;;;;;;3.22;2.60;;;18.70;99.90;;;;;;7375691;19;20392;-74
2022/06/30 01:02:10;;;;;;;1.90;1.80;;;18.70;99.90;;;;;;7368046;19;20340;-73
2022/06/30 01:04:36;;;;;;;2.33;2.13;;;18.70;99.90;;;;;;7377404;19;20363;-73
2022/06/30 01:07:01;;;;;;;2.50;2.30;;;18.80;99.90;;;;;;7375726;19;20352;-75
2022/06/30 01:14:56;;;;;;;2.22;2.13;;;18.80;99.90;;;;;;7273662;19;2004803;-72
2022/06/30 01:17:21;;;;;;;2.72;2.50;;;18.80;99.90;;;;;;7376365;19;20316;-74
2022/06/30 01:19:53;;;;;;;2.50;2.30;;;18.80;99.90;;;;;;7374814;19;20368;-72
2022/06/30 01:22:19;;;;;;;2.63;2.42;;;18.80;99.90;;;;;;7371604;19;20459;-70
2022/06/30 01:24:44;;;;;;;2.50;2.30;;;18.80;99.90;;;;;;7373921;19;20349;-71
2022/06/30 01:27:11;;;;;;;2.40;2.20;;;18.80;99.90;;;;;;7373828;19;20372;-71
2022/06/30 01:30:30;;;;;;;2.28;2.17;;;18.80;99.90;;;;;;7373882;19;20392;-74
2022/06/30 01:32:55;;;;;;;3.33;3.03;;;18.80;99.90;;;;;;7058707;19;2004866;-73
2022/06/30 01:35:21;;;;;;;5.77;3.00;;;18.80;99.90;;;;;;7371775;19;20313;-72
2022/06/30 01:37:54;;;;;;;2.80;2.50;;;18.80;99.90;;;;;;7374518;19;20344;-70
2022/06/30 01:40:20;;;;;;;2.90;2.70;;;18.80;99.90;;;;;;7372628;19;20665;-73
2022/06/30 01:42:45;;;;;;;2.83;2.63;;;18.80;99.90;;;;;;7372556;19;20664;-74
2022/06/30 01:45:11;;;;;;;2.80;2.60;;;18.80;99.90;;;;;;7371237;19;20316;-75
2022/06/30 01:47:37;;;;;;;2.90;2.50;;;18.80;99.90;;;;;;7375275;19;20345;-72
2022/06/30 01:50:07;;;;;;;2.60;2.40;;;18.80;99.90;;;;;;7372936;19;20493;-75
2022/06/30 01:52:32;;;;;;;3.13;2.83;;;18.80;99.90;;;;;;7369420;19;20312;-74
2022/06/30 01:54:58;;;;;;;2.70;2.50;;;18.70;99.90;;;;;;7374297;19;20382;-74
2022/06/30 01:57:23;;;;;;;2.87;2.67;;;18.70;99.90;;;;;;7373419;19;20444;-75
2022/06/30 01:59:49;;;;;;;3.80;3.30;;;18.70;99.90;;;;;;7374602;19;20355;-75
2022/06/30 02:02:14;;;;;;;3.20;2.90;;;18.60;99.90;;;;;;7369277;19;20701;-74
2022/06/30 02:04:46;;;;;;;3.10;2.80;;;18.60;99.90;;;;;;7373752;19;20325;-71
2022/06/30 02:07:12;;;;;;;2.85;2.65;;;18.60;99.90;;;;;;7374958;19;21175;-71
2022/06/30 02:09:37;;;;;;;2.90;2.70;;;18.50;99.90;;;;;;7373995;19;20333;-71
2022/06/30 02:14:47;;;;;;;3.03;2.72;;;18.60;99.90;;;;;;7276891;19;2004532;-74
2022/06/30 02:17:13;;;;;;;3.30;2.80;;;18.70;99.90;;;;;;7382650;19;20316;-72
2022/06/30 02:19:38;;;;;;;3.70;2.80;;;18.60;99.90;;;;;;7382063;19;20373;-72
2022/06/30 02:22:04;;;;;;;3.72;2.97;;;18.50;99.90;;;;;;7376692;19;21211;-74
2022/06/30 02:24:30;;;;;;;3.50;3.20;;;18.60;99.90;;;;;;7380221;19;20336;-71
2022/06/30 02:26:55;;;;;;;3.28;2.97;;;18.50;99.90;;;;;;7381873;19;20340;-71
2022/06/30 02:29:21;;;;;;;3.00;2.70;;;18.40;99.90;;;;;;7378119;19;20309;-72
2022/06/30 02:31:46;;;;;;;3.10;2.90;;;18.50;99.90;;;;;;7376274;19;20344;-72
2022/06/30 02:34:12;;;;;;;3.15;2.80;;;18.30;99.90;;;;;;7380947;19;20332;-75
2022/06/30 02:36:38;;;;;;;3.33;3.03;;;18.40;99.90;;;;;;7379653;19;20929;-72
2022/06/30 02:39:03;;;;;;;3.00;2.80;;;18.40;99.90;;;;;;7380056;19;20308;-72
2022/06/30 02:41:29;;;;;;;3.00;2.80;;;18.40;99.90;;;;;;7380537;19;20349;-74
2022/06/30 02:43:54;;;;;;;3.13;2.78;;;18.40;99.90;;;;;;7378555;19;20689;-76
2022/06/30 02:46:20;;;;;;;3.23;2.93;;;18.50;99.90;;;;;;7381534;19;20321;-76
2022/06/30 02:48:45;;;;;;;3.23;3.00;;;18.50;99.90;;;;;;7381109;19;20348;-71
2022/06/30 02:51:11;;;;;;;3.87;3.47;;;18.50;99.90;;;;;;7376704;19;20879;-77
2022/06/30 02:53:36;;;;;;;4.15;3.75;;;18.50;99.90;;;;;;7381625;19;20316;-72
2022/06/30 02:56:02;;;;;;;3.27;2.97;;;18.30;99.90;;;;;;7379528;19;20341;-73
2022/06/30 02:58:28;;;;;;;3.40;3.10;;;18.20;99.90;;;;;;7378055;19;20880;-73
2022/06/30 03:00:53;;;;;;;4.20;3.80;;;18.20;99.90;;;;;;7373339;19;20353;-73
2022/06/30 03:03:19;;;;;;;3.77;3.20;;;18.20;99.90;;;;;;7379482;19;20317;-71
2022/06/30 03:05:44;;;;;;;3.37;3.07;;;18.10;99.90;;;;;;7378500;19;20350;-71
2022/06/30 03:08:10;;;;;;;3.50;3.20;;;18.20;99.90;;;;;;7382267;19;20323;-74
2022/06/30 03:10:36;;;;;;;3.53;3.23;;;18.20;99.90;;;;;;7373785;19;20459;-71
2022/06/30 03:13:01;;;;;;;2.83;2.63;;;18.30;99.90;;;;;;7379988;19;20341;-77
2022/06/30 03:15:27;;;;;;;3.40;3.10;;;18.30;99.90;;;;;;7376263;19;20867;-72
2022/06/30 03:17:52;;;;;;;3.60;3.30;;;18.30;99.90;;;;;;7381686;19;20863;-72
2022/06/30 03:20:18;;;;;;;3.17;2.87;;;18.30;99.90;;;;;;7374163;19;20341;-72
2022/06/30 03:22:44;;;;;;;3.10;2.90;;;18.30;99.90;;;;;;7376237;19;21532;-71
2022/06/30 03:25:09;;;;;;;4.47;3.47;;;18.30;99.90;;;;;;7374619;19;20407;-72
2022/06/30 03:27:35;;;;;;;3.17;2.87;;;18.40;99.90;;;;;;7361001;19;20351;-76
2022/06/30 03:30:00;;;;;;;5.10;2.92;;;18.40;99.90;;;;;;7372707;19;21010;-72
2022/06/30 03:32:26;;;;;;;3.42;3.13;;;18.50;99.90;;;;;;7376406;19;20333;-72
2022/06/30 03:34:51;;;;;;;3.60;3.30;;;18.50;99.90;;;;;;7376507;19;20731;-71
2022/06/30 03:37:17;;;;;;;3.60;3.30;;;18.50;99.90;;;;;;7377201;19;20320;-71
2022/06/30 03:39:43;;;;;;;3.70;3.40;;;18.50;99.90;;;;;;7375887;19;21222;-70
2022/06/30 03:42:08;;;;;;;3.67;3.37;;;18.50;99.90;;;;;;7375345;19;22383;-70
2022/06/30 03:44:34;;;;;;;3.50;3.20;;;18.50;99.90;;;;;;7380635;19;20444;-72
2022/06/30 03:47:00;;;;;;;3.85;3.45;;;18.50;99.90;;;;;;7378447;19;20408;-72
2022/06/30 03:49:25;;;;;;;3.42;3.13;;;18.40;99.90;;;;;;7375025;19;20709;-74
2022/06/30 03:51:51;;;;;;;4.00;3.53;;;18.50;99.90;;;;;;7376160;19;20408;-73
2022/06/30 03:54:19;;;;;;;4.13;3.72;;;18.50;99.90;;;;;;7378852;19;20332;-74
2022/06/30 03:56:44;;;;;;;4.37;3.77;;;18.50;99.90;;;;;;7377651;19;20392;-76
2022/06/30 03:59:10;;;;;;;4.25;3.75;;;18.60;99.90;;;;;;7375014;19;20404;-72
2022/06/30 04:01:35;;;;;;;3.90;3.60;;;18.60;99.90;;;;;;7377817;19;20636;-74
2022/06/30 04:04:01;;;;;;;4.90;3.40;;;18.50;99.90;;;;;;7377979;19;20346;-73
2022/06/30 04:06:27;;;;;;;3.63;3.33;;;18.60;99.90;;;;;;7375411;19;20435;-72
2022/06/30 04:08:52;;;;;;;3.97;3.67;;;18.60;99.90;;;;;;7373934;19;20948;-73
2022/06/30 04:11:18;;;;;;;3.40;3.10;;;18.60;99.90;;;;;;7374169;19;20374;-70
2022/06/30 04:13:43;;;;;;;3.80;3.50;;;18.60;99.90;;;;;;7374265;19;20344;-75
2022/06/30 04:16:09;;;;;;;4.40;4.00;;;18.70;99.90;;;;;;7375376;19;20846;-77
2022/06/30 04:18:35;;;;;;;4.50;4.10;;;18.70;99.90;;;;;;7376737;19;20316;-73
2022/06/30 04:21:00;;;;;;;3.63;3.33;;;18.80;99.90;;;;;;7371626;19;20328;-72
2022/06/30 04:23:26;;;;;;;4.63;3.70;;;18.80;99.90;;;;;;7374888;19;20900;-76
2022/06/30 04:25:51;;;;;;;3.67;3.33;;;19.00;99.90;;;;;;7376636;19;20317;-76
2022/06/30 04:28:17;;;;;;;5.90;3.90;;;18.90;99.90;;;;;;7376555;19;20377;-72
2022/06/30 04:33:34;;;;;;;4.60;4.20;;;19.00;99.90;;;;;;7272935;19;2004583;-74
2022/06/30 04:36:00;;;;;;;4.80;4.40;;;19.00;99.90;;;;;;7374718;19;20331;-75
2022/06/30 04:38:25;;;;;;;4.50;4.10;;;18.90;99.90;;;;;;7376345;19;20322;-73
2022/06/30 04:43:46;;;;;;;4.38;4.00;;;19.00;99.90;;;;;;7269604;19;2004475;-73
2022/06/30 04:46:11;;;;;;;4.80;3.93;;;19.00;99.90;;;;;;7373372;19;20336;-70
2022/06/30 04:48:37;;;;;;;4.00;3.70;;;19.10;99.90;;;;;;7375131;19;20324;-73
2022/06/30 04:51:02;;;;;;;5.60;4.85;;;19.10;99.90;;;;;;7371877;19;20344;-72
2022/06/30 04:53:28;;;;;;;4.30;3.87;;;19.10;99.90;;;;;;7377879;19;20317;-72
2022/06/30 04:55:53;;;;;;;4.90;4.50;;;19.20;99.90;;;;;;7375643;19;20328;-75
2022/06/30 04:58:19;;;;;;;5.50;4.85;;;19.30;99.90;;;;;;7375638;19;20674;-74
2022/06/30 05:00:45;;;;;;;4.73;4.30;;;19.20;99.90;;;;;;7372390;19;20321;-73
2022/06/30 05:03:10;;;;;;;4.53;4.13;;;19.20;99.90;;;;;;7374994;19;20665;-72
2022/06/30 05:05:36;;;;;;;4.40;4.00;;;19.20;99.90;;;;;;7376981;19;20404;-78
2022/06/30 05:08:01;;;;;;;4.70;4.30;;;19.30;99.90;;;;;;7377897;19;20348;-71
2022/06/30 05:10:27;;;;;;;4.90;4.40;;;19.30;99.90;;;;;;7369177;19;20986;-74
2022/06/30 05:12:52;;;;;;;6.13;5.10;;;19.40;99.90;;;;;;7376355;19;20361;-73
2022/06/30 05:15:18;;;;;;;4.87;4.37;;;19.40;99.90;;;;;;7374189;19;20355;-72
2022/06/30 05:17:43;;;;;;;5.35;4.85;;;19.30;99.90;;;;;;7374597;19;20717;-72
2022/06/30 05:20:09;;;;;;;5.00;4.57;;;19.30;99.90;;;;;;7364415;19;20328;-74
2022/06/30 05:22:35;;;;;;;4.67;4.27;;;19.30;99.90;;;;;;7370265;19;21860;-73
2022/06/30 05:27:46;;;;;;;5.30;4.80;;;19.50;99.90;;;;;;7379132;19;20329;-73
2022/06/30 05:30:12;;;;;;;6.20;5.43;;;19.50;99.90;;;;;;7368255;19;20355;-73
2022/06/30 05:32:37;;;;;;;5.70;4.40;;;19.60;99.90;;;;;;7375841;19;20319;-74
2022/06/30 05:35:04;;;;;;;5.50;5.00;;;19.60;99.90;;;;;;7374963;19;20340;-73
2022/06/30 05:37:30;;;;;;;5.70;5.20;;;19.70;99.90;;;;;;7376514;19;20321;-74
2022/06/30 05:39:55;;;;;;;6.35;5.05;;;19.60;99.90;;;;;;7369153;19;20357;-72
2022/06/30 05:42:21;;;;;;;6.40;5.80;;;19.50;99.90;;;;;;7369727;19;20887;-75
2022/06/30 05:44:46;;;;;;;5.20;4.70;;;19.70;99.90;;;;;;7375332;19;20344;-73
2022/06/30 05:47:13;;;;;;;4.80;4.40;;;19.70;99.90;;;;;;7375287;19;20313;-72
2022/06/30 05:49:38;;;;;;;5.53;5.00;;;19.70;99.90;;;;;;7376857;19;20368;-71
2022/06/30 05:52:04;;;;;;;5.97;5.37;;;19.80;99.90;;;;;;7377986;19;20910;-73
2022/06/30 05:54:30;;;;;;;6.25;5.15;;;19.90;99.90;;;;;;7382428;19;20328;-73
2022/06/30 05:56:56;;;;;;;5.53;5.03;;;20.00;99.90;;;;;;7375859;19;20348;-74
2022/06/30 05:59:21;;;;;;;6.05;5.55;;;20.00;99.90;;;;;;7378237;19;21020;-79
2022/06/30 06:01:47;;;;;;;6.03;5.47;;;20.00;99.90;;;;;;7377983;19;20364;-75
2022/06/30 06:04:12;;;;;;;6.00;4.90;;;20.10;99.90;;;;;;7382882;19;20304;-71
2022/06/30 06:06:38;;;;;;;6.13;5.18;;;20.00;99.90;;;;;;7378502;19;20345;-71
2022/06/30 06:09:03;;;;;;;7.88;5.63;;;20.10;99.90;;;;;;7378695;19;21497;-76
2022/06/30 06:11:30;;;;;;;6.40;5.27;;;20.00;99.90;;;;;;7382134;19;20368;-72
2022/06/30 06:13:56;;;;;;;8.50;7.10;;;20.10;99.90;;;;;;7381816;19;20421;-77
2022/06/30 06:16:22;;;;;;;7.28;6.22;;;20.00;99.90;;;;;;7380620;19;20356;-74
2022/06/30 06:18:47;;;;;;;6.80;6.07;;;20.00;99.90;;;;;;7378384;19;20349;-72
2022/06/30 06:21:13;;;;;;;8.63;6.22;;;20.10;99.90;;;;;;7379409;19;20313;-74
2022/06/30 06:23:38;;;;;;;6.70;5.70;;;20.10;99.90;;;;;;7382361;19;20334;-76
2022/06/30 06:26:04;;;;;;;9.63;7.77;;;20.20;99.90;;;;;;7378977;19;20329;-75
2022/06/30 06:31:14;;;;;;;8.70;7.05;;;20.10;99.90;;;;;;7379535;19;20313;-71
2022/06/30 06:33:39;;;;;;;8.63;7.73;;;20.00;99.90;;;;;;7381583;19;20372;-72
2022/06/30 06:36:05;;;;;;;9.60;8.65;;;20.00;99.90;;;;;;7379202;19;20336;-75
2022/06/30 06:38:31;;;;;;;10.40;8.53;;;20.10;99.90;;;;;;7378968;19;20317;-75
2022/06/30 06:40:56;;;;;;;10.37;8.93;;;20.10;99.90;;;;;;7375749;19;20336;-69
2022/06/30 06:43:22;;;;;;;10.57;9.15;;;19.90;99.90;;;;;;7380662;19;20332;-72
2022/06/30 06:45:47;;;;;;;10.03;8.77;;;19.80;99.90;;;;;;7378336;19;20366;-73
2022/06/30 06:48:13;;;;;;;8.57;7.70;;;19.90;99.90;;;;;;7381049;19;20335;-77
2022/06/30 06:50:38;;;;;;;9.47;8.03;;;19.90;99.90;;;;;;7378400;19;20337;-73
2022/06/30 06:53:04;;;;;;;9.10;8.18;;;20.00;99.90;;;;;;7379289;19;20369;-76
2022/06/30 06:55:30;;;;;;;8.10;7.30;;;20.00;99.90;;;;;;7376458;19;20326;-70
2022/06/30 06:57:56;;;;;;;8.93;8.10;;;19.90;99.90;;;;;;7381334;19;20335;-77
2022/06/30 07:00:21;;;;;;;8.82;7.60;;;20.00;99.90;;;;;;7369035;19;20341;-71
2022/06/30 07:02:47;;;;;;;7.23;6.57;;;19.90;99.90;;;;;;7379904;19;20943;-71
2022/06/30 07:05:12;;;;;;;8.30;7.50;;;20.00;99.90;;;;;;7380909;19;20315;-74
2022/06/30 07:07:38;;;;;;;9.32;7.95;;;20.10;99.90;;;;;;7377461;19;20335;-72
2022/06/30 07:10:05;;;;;;;8.43;7.17;;;20.10;99.90;;;;;;7374937;19;20336;-75
2022/06/30 07:12:31;;;;;;;8.38;7.57;;;20.20;99.90;;;;;;7377064;19;20868;-72
2022/06/30 07:14:57;;;;;;;8.10;7.20;;;20.20;99.90;;;;;;7380804;19;20371;-71
2022/06/30 07:17:22;;;;;;;8.55;7.28;;;20.20;99.90;;;;;;7380259;19;20321;-77
2022/06/30 07:19:48;;;;;;;7.97;7.17;;;20.30;99.90;;;;;;7376186;19;20455;-72
2022/06/30 07:22:13;;;;;;;7.63;6.93;;;20.30;99.90;;;;;;7375430;19;20308;-73
2022/06/30 07:24:39;;;;;;;8.98;7.97;;;20.30;99.90;;;;;;7379561;19;20305;-72
2022/06/30 07:27:05;;;;;;;9.48;8.18;;;20.50;99.90;;;;;;7378202;19;20309;-74
2022/06/30 07:29:30;;;;;;;9.87;7.90;;;20.60;99.90;;;;;;7376321;19;20321;-74
2022/06/30 07:31:56;;;;;;;7.75;6.80;;;20.80;99.90;;;;;;7376180;19;21216;-78
2022/06/30 07:34:22;;;;;;;9.30;8.40;;;20.90;99.90;;;;;;7378997;19;20340;-74
2022/06/30 07:36:48;;;;;;;9.77;8.60;;;20.80;99.90;;;;;;7374895;19;20362;-74
2022/06/30 07:39:13;;;;;;;9.40;8.48;;;20.80;99.90;;;;;;7374577;19;20665;-73
2022/06/30 07:41:39;;;;;;;10.37;9.27;;;20.50;99.90;;;;;;7376249;19;21190;-73
2022/06/30 07:44:04;;;;;;;8.80;8.00;;;20.40;99.90;;;;;;7381654;19;20332;-74
2022/06/30 07:46:30;;;;;;;9.27;7.90;;;20.60;99.90;;;;;;7377061;19;20432;-73
2022/06/30 07:48:55;;;;;;;8.02;7.32;;;20.80;99.90;;;;;;7374447;19;20320;-74
2022/06/30 07:51:21;;;;;;;7.97;7.17;;;21.00;99.90;;;;;;7376458;19;20338;-71
2022/06/30 07:53:47;;;;;;;8.37;7.23;;;21.30;99.90;;;;;;7378518;19;20352;-72
2022/06/30 07:56:13;;;;;;;8.60;7.70;;;21.50;99.90;;;;;;7376224;19;20316;-72
2022/06/30 07:58:39;;;;;;;7.97;7.18;;;21.70;99.90;;;;;;7375437;19;20313;-73
2022/06/30 08:01:04;;;;;;;8.17;7.37;;;21.70;99.90;;;;;;7368727;19;20336;-73
2022/06/30 08:03:30;;;;;;;9.10;7.80;;;21.80;99.90;;;;;;7377212;19;20761;-77
2022/06/30 08:05:56;;;;;;;8.38;7.47;;;21.90;99.90;;;;;;7375846;19;20333;-72
2022/06/30 08:08:21;;;;;;;8.13;7.30;;;21.90;99.90;;;;;;7376920;19;20365;-72
2022/06/30 08:10:47;;;;;;;7.27;6.57;;;22.00;99.90;;;;;;7370927;19;20811;-73
2022/06/30 08:13:12;;;;;;;7.00;6.30;;;22.10;99.90;;;;;;7373361;19;20428;-76
2022/06/30 08:15:38;;;;;;;7.25;6.55;;;22.20;99.90;;;;;;7376006;19;20903;-72
2022/06/30 08:18:04;;;;;;;7.18;6.47;;;22.30;99.90;;;;;;7378453;19;20400;-72
2022/06/30 08:20:30;;;;;;;7.95;6.85;;;22.40;99.90;;;;;;7374833;19;20328;-72
2022/06/30 08:22:55;;;;;;;6.70;6.10;;;22.50;99.90;;;;;;7373307;19;20365;-72
2022/06/30 08:25:21;;;;;;;6.47;5.87;;;22.60;99.90;;;;;;7375652;19;20455;-76
2022/06/30 08:27:46;;;;;;;6.70;6.10;;;22.80;99.90;;;;;;7376529;19;20312;-73
2022/06/30 08:30:12;;;;;;;6.95;6.25;;;22.90;99.90;;;;;;7373737;19;20829;-75
2022/06/30 08:32:38;;;;;;;6.72;6.13;;;22.90;99.90;;;;;;7371900;19;20666;-73
2022/06/30 08:35:03;;;;;;;7.33;5.93;;;23.10;99.90;;;;;;7375845;19;20714;-75
2022/06/30 08:37:29;;;;;;;8.43;6.80;;;23.10;99.90;;;;;;7379179;19;20407;-77
2022/06/30 08:42:38;;;;;;;6.57;5.97;;;23.20;99.90;;;;;;7373914;19;20312;-72
2022/06/30 08:45:13;;;;;;;7.33;6.63;;;23.20;99.90;;;;;;7375622;19;20344;-72
2022/06/30 08:47:39;;;;;;;6.28;5.72;;;23.30;99.90;;;;;;7376141;19;20835;-75
2022/06/30 08:50:06;;;;;;;7.90;5.68;;;23.50;99.90;;;;;;7375812;19;20339;-75
2022/06/30 08:52:32;;;;;;;5.97;5.37;;;23.50;99.90;;;;;;7372577;19;20328;-77
2022/06/30 08:54:58;;;;;;;5.97;5.38;;;23.60;99.90;;;;;;7372750;19;20348;-76
2022/06/30 08:57:25;;;;;;;6.10;5.60;;;23.70;99.90;;;;;;7376134;19;20316;-74
2022/06/30 08:59:51;;;;;;;7.70;5.45;;;23.70;99.90;;;;;;7375297;19;20354;-73
2022/06/30 09:02:18;;;;;;;5.13;4.63;;;23.80;99.90;;;;;;7370409;19;20348;-75
2022/06/30 09:04:43;;;;;;;6.57;5.63;;;23.90;99.90;;;;;;7375377;19;20328;-75
2022/06/30 09:07:10;;;;;;;6.80;6.05;;;23.90;99.90;;;;;;7373231;19;21090;-73
2022/06/30 09:09:35;;;;;;;5.88;5.30;;;23.80;99.90;;;;;;7375932;19;20408;-76
2022/06/30 09:12:01;;;;;;;5.95;5.43;;;23.90;99.90;;;;;;7372125;19;20391;-74
2022/06/30 09:14:37;;;;;;;6.67;6.07;;;23.90;99.90;;;;;;7374731;19;21143;-77
2022/06/30 09:17:05;;;;;;;6.43;5.88;;;23.90;99.90;;;;;;7372650;19;20345;-76
2022/06/30 09:19:31;;;;;;;5.87;5.37;;;23.80;99.90;;;;;;7374802;19;20336;-72
2022/06/30 09:22:04;;;;;;;6.07;5.57;;;23.90;99.90;;;;;;7370731;19;20337;-72
2022/06/30 09:24:29;;;;;;;6.20;5.60;;;23.90;99.90;;;;;;7373316;19;20321;-74
2022/06/30 09:27:19;;;;;;;5.63;5.13;;;24.00;99.90;;;;;;7374476;19;20334;-75
2022/06/30 09:29:49;;;;;;;5.75;5.25;;;24.10;99.90;;;;;;7376068;19;20316;-77
2022/06/30 09:32:15;;;;;;;5.90;5.03;;;23.90;99.90;;;;;;7370833;19;20325;-77
2022/06/30 09:34:41;;;;;;;6.03;5.23;;;24.10;99.90;;;;;;7373908;19;20356;-75
2022/06/30 09:37:21;;;;;;;5.47;4.97;;;24.20;99.90;;;;;;7371725;19;21076;-75
2022/06/30 09:39:47;;;;;;;5.80;5.15;;;24.20;99.90;;;;;;7375399;19;20343;-74
2022/06/30 09:42:12;;;;;;;5.25;4.82;;;24.30;99.90;;;;;;7372126;19;20855;-76
2022/06/30 09:44:38;;;;;;;5.70;5.20;;;24.60;99.90;;;;;;7375192;19;20311;-72
2022/06/30 09:47:08;;;;;;;4.80;4.40;;;24.80;99.90;;;;;;7375488;19;20859;-73
2022/06/30 09:49:37;;;;;;;5.35;4.80;;;24.70;99.90;;;;;;7374275;19;20328;-74
2022/06/30 09:52:05;;;;;;;5.73;5.13;;;24.80;99.90;;;;;;7371079;19;20344;-72
2022/06/30 09:54:34;;;;;;;5.70;5.10;;;24.90;99.90;;;;;;7374593;19;20327;-78
2022/06/30 09:57:05;;;;;;;5.50;5.00;;;24.80;99.90;;;;;;7373142;19;20437;-76
2022/06/30 09:59:30;;;;;;;7.13;5.63;;;24.70;99.90;;;;;;7374695;19;20843;-77
2022/06/30 10:01:56;;;;;;;5.63;5.13;;;24.40;99.90;;;;;;7369026;19;20331;-71
2022/06/30 10:04:21;;;;;;;5.40;4.90;;;24.40;99.90;;;;;;7374260;19;20305;-75
2022/06/30 10:06:47;;;;;;;4.97;4.57;;;24.50;99.90;;;;;;7370312;19;20336;-73
2022/06/30 10:09:17;;;;;;;5.27;4.77;;;24.60;99.90;;;;;;7373798;19;20914;-73
2022/06/30 10:11:46;;;;;;;6.05;5.05;;;24.90;99.90;;;;;;7372040;19;20316;-75
2022/06/30 10:14:12;;;;;;;4.90;4.50;;;25.20;99.90;;;;;;7372618;19;20296;-74
2022/06/30 10:16:39;;;;;;;4.28;3.92;;;25.30;99.90;;;;;;7372733;19;25471;-73
2022/06/30 10:19:05;;;;;;;4.70;4.30;;;25.20;99.90;;;;;;7373607;19;20345;-73
2022/06/30 10:21:30;;;;;;;4.17;3.87;;;25.40;99.90;;;;;;7372203;19;20349;-74
2022/06/30 10:23:56;;;;;;;5.57;4.53;;;25.60;99.90;;;;;;7370121;19;20336;-76
2022/06/30 10:29:06;;;;;;;5.37;4.87;;;25.70;99.90;;;;;;7374197;19;20896;-74
2022/06/30 10:31:40;;;;;;;5.10;4.57;;;26.00;99.90;;;;;;7371737;19;20348;-75
2022/06/30 10:34:16;;;;;;;5.35;4.85;;;26.10;99.90;;;;;;7371726;19;20336;-74
2022/06/30 10:37:03;;;;;;;5.60;5.10;;;26.30;99.90;;;;;;7378039;19;20352;-73
2022/06/30 10:39:51;;;;;;;4.65;4.25;;;26.50;99.90;;;;;;7278479;19;2005247;-74
2022/06/30 10:42:48;;;;;;;5.07;4.57;;;26.30;99.90;;;;;;7374595;19;20313;-72
2022/06/30 10:45:25;;;;;;;5.28;4.57;;;26.60;99.90;;;;;;7276850;19;2004224;-73
2022/06/30 10:48:02;;;;;;;5.53;5.03;;;26.60;99.90;;;;;;7279090;19;2004450;-72
2022/06/30 10:50:38;;;;;;;5.43;4.72;;;26.70;99.90;;;;;;7378871;19;21363;-72
2022/06/30 10:53:04;;;;;;;7.95;4.53;;;26.30;99.90;;;;;;7378165;19;20366;-73
2022/06/30 10:55:45;;;;;;;4.47;4.07;;;26.40;99.90;;;;;;7378172;19;20311;-74
2022/06/30 10:58:11;;;;;;;4.85;4.43;;;26.80;99.90;;;;;;7380983;19;20412;-74
2022/06/30 11:00:47;;;;;;;5.87;4.70;;;26.70;99.90;;;;;;7376507;19;20350;-74
2022/06/30 11:03:39;;;;;;;5.00;4.53;;;27.00;99.90;;;;;;7375533;19;20309;-77
2022/06/30 11:06:06;;;;;;;4.75;4.35;;;27.00;99.90;;;;;;7277773;19;2004460;-75
2022/06/30 11:08:57;;;;;;;4.70;4.30;;;27.00;99.90;;;;;;7379954;19;20340;-72
2022/06/30 11:11:23;;;;;;;5.07;4.40;;;27.20;99.90;;;;;;7278450;19;2004369;-73
2022/06/30 11:13:49;;;;;;;4.40;4.00;;;27.40;99.90;;;;;;7378875;19;20404;-74
2022/06/30 11:16:15;;;;;;;4.50;4.10;;;27.70;99.90;;;;;;7380569;19;20324;-74
2022/06/30 11:18:40;;;;;;;4.72;4.32;;;27.90;99.90;;;;;;7379538;19;20388;-73
2022/06/30 11:21:06;;;;;;;4.40;4.00;;;27.90;99.90;;;;;;7377145;19;20344;-72
2022/06/30 11:23:43;;;;;;;4.13;3.80;;;27.90;99.90;;;;;;7375538;19;20926;-73
2022/06/30 11:28:53;;;;;;;4.05;3.75;;;28.60;99.90;;;;;;7275262;19;2004346;-73
2022/06/30 11:31:33;;;;;;;5.23;4.73;;;28.90;99.90;;;;;;7378689;19;20377;-73
2022/06/30 11:34:00;;;;;;;4.50;4.10;;;29.10;99.90;;;;;;7274268;19;2004175;-73
2022/06/30 11:36:26;;;;;;;5.10;4.60;;;29.30;99.90;;;;;;7378615;19;20655;-72
2022/06/30 11:38:56;;;;;;;4.28;3.65;;;29.40;99.90;;;;;;7379346;19;21001;-73
2022/06/30 11:44:11;;;;;;;6.28;4.68;;;30.40;99.90;;;;;;7378435;19;20364;-73
2022/06/30 11:46:49;;;;;;;6.22;4.82;;;30.40;99.90;;;;;;7377192;19;20317;-72
2022/06/30 11:49:15;;;;;;;4.93;4.53;;;30.60;99.90;;;;;;7380713;19;20675;-73
2022/06/30 11:51:41;;;;;;;5.25;4.75;;;30.40;99.90;;;;;;7378436;19;20345;-73
2022/06/30 11:54:07;;;;;;;5.85;5.25;;;30.60;99.90;;;;;;7376698;19;20349;-73
2022/06/30 11:56:49;;;;;;;4.93;4.53;;;30.50;99.90;;;;;;7376144;19;20903;-72
2022/06/30 11:59:14;;;;;;;5.47;4.97;;;30.60;99.90;;;;;;7379790;19;20974;-72
2022/06/30 12:01:40;;;;;;;4.90;4.50;;;30.30;99.90;;;;;;7376686;19;20336;-73
2022/06/30 12:04:15;;;;;;;5.13;4.63;;;29.90;99.90;;;;;;7376716;19;20337;-73
2022/06/30 12:06:41;;;;;;;5.53;5.03;;;29.60;99.90;;;;;;7378191;19;21121;-74
2022/06/30 12:09:07;;;;;;;6.93;5.33;;;30.00;99.90;;;;;;7378436;19;20395;-74
2022/06/30 12:11:34;;;;;;;5.50;5.00;;;30.30;99.90;;;;;;7379814;19;20380;-74
2022/06/30 12:14:00;;;;;;;6.13;5.53;;;31.00;99.90;;;;;;7375440;19;20332;-74
2022/06/30 12:16:25;;;;;;;5.60;5.10;;;31.90;99.90;;;;;;7375269;19;20324;-74
2022/06/30 12:18:51;;;;;;;6.22;5.70;;;32.20;99.90;;;;;;7378636;19;20359;-74
2022/06/30 12:21:16;;;;;;;6.32;5.72;;;32.20;99.90;;;;;;7375598;19;20855;-74
2022/06/30 12:23:42;;;;;;;5.88;5.30;;;32.60;99.90;;;;;;7376064;19;20308;-74
2022/06/30 12:26:08;;;;;;;6.03;4.90;;;32.80;99.90;;;;;;7375606;19;20313;-74
2022/06/30 12:28:58;;;;;;;5.38;4.72;;;33.10;99.90;;;;;;7377587;19;20321;-74
2022/06/30 12:31:27;;;;;;;6.13;5.22;;;33.50;99.90;;;;;;7273319;19;2004416;-74
2022/06/30 12:33:54;;;;;;;6.05;5.45;;;32.90;99.90;;;;;;7373764;19;20346;-74
2022/06/30 12:36:21;;;;;;;5.80;5.22;;;33.00;99.90;;;;;;7377842;19;20328;-75
2022/06/30 12:38:46;;;;;;;6.43;5.25;;;33.10;99.90;;;;;;7378282;19;20308;-74
2022/06/30 12:41:12;;;;;;;8.30;5.57;;;33.80;99.90;;;;;;7377882;19;20360;-74
2022/06/30 12:43:45;;;;;;;6.07;5.33;;;34.00;99.90;;;;;;7374393;19;20427;-75
2022/06/30 12:46:11;;;;;;;6.57;5.97;;;34.10;99.90;;;;;;7376845;19;20348;-74
2022/06/30 12:48:50;;;;;;;6.10;5.30;;;33.70;99.70;;;;;;7376743;19;20321;-74
2022/06/30 12:51:36;;;;;;;6.43;5.82;;;33.90;99.90;;;;;;7377049;19;20780;-74
2022/06/30 12:54:05;;;;;;;5.57;5.07;;;33.70;99.90;;;;;;7273037;19;2006918;-74
2022/06/30 12:56:31;;;;;;;6.40;5.80;;;33.50;99.90;;;;;;7376528;19;20336;-74
2022/06/30 12:59:01;;;;;;;6.63;6.00;;;33.40;99.90;;;;;;7377349;19;21101;-74
2022/06/30 13:01:33;;;;;;;6.07;5.47;;;32.90;99.90;;;;;;7374434;19;20324;-74
2022/06/30 13:04:09;;;;;;;6.93;6.13;;;32.70;99.90;;;;;;7374027;19;20333;-74
2022/06/30 13:06:39;;;;;;;6.38;5.15;;;32.50;99.90;;;;;;7376562;19;20345;-74
2022/06/30 13:09:07;;;;;;;8.05;5.90;;;33.00;99.90;;;;;;7376254;19;21139;-74
2022/06/30 13:11:37;;;;;;;6.45;5.72;;;33.10;99.90;;;;;;7375477;19;20331;-74
2022/06/30 13:14:03;;;;;;;6.72;5.85;;;33.60;99.90;;;;;;7373559;19;20337;-74
2022/06/30 13:16:30;;;;;;;6.15;5.55;;;33.50;99.90;;;;;;7377294;19;20353;-74